sensor_id;sensor_type;location;lat;lon;timestamp;pressure;altitude;pressure_sealevel;temperature;humidity
6668;BME280;3370;47.712;9.082;2023-02-11T00:00:08;99061.72;;;-2.89;90.13
6668;BME280;3370;47.712;9.082;2023-02-11T00:02:35;99064.19;;;-2.70;90.11
6668;BME280;3370;47.712;9.082;2023-02-11T00:05:01;99071.19;;;-2.83;90.90
6668;BME280;3370;47.712;9.082;2023-02-11T00:07:31;99064.56;;;-2.81;90.94
6668;BME280;3370;47.712;9.082;2023-02-11T00:09:58;99057.91;;;-2.79;90.99
6668;BME280;3370;47.712;9.082;2023-02-11T00:12:24;99060.44;;;-2.79;90.44
6668;BME280;3370;47.712;9.082;2023-02-11T00:14:50;99058.97;;;-2.53;89.46
6668;BME280;3370;47.712;9.082;2023-02-11T00:17:16;99052.47;;;-2.69;89.13
6668;BME280;3370;47.712;9.082;2023-02-11T00:19:42;99047.00;;;-2.59;87.62
6668;BME280;3370;47.712;9.082;2023-02-11T00:22:08;99047.47;;;-2.89;88.85
6668;BME280;3370;47.712;9.082;2023-02-11T00:24:35;99048.41;;;-2.65;89.20
6668;BME280;3370;47.712;9.082;2023-02-11T00:27:01;99048.66;;;-2.80;89.33
6668;BME280;3370;47.712;9.082;2023-02-11T00:29:27;99046.50;;;-2.50;88.06
6668;BME280;3370;47.712;9.082;2023-02-11T00:31:53;99034.28;;;-2.62;87.91
6668;BME280;3370;47.712;9.082;2023-02-11T00:34:19;99040.78;;;-2.67;88.72
6668;BME280;3370;47.712;9.082;2023-02-11T00:36:44;99035.69;;;-2.68;88.93
6668;BME280;3370;47.712;9.082;2023-02-11T00:39:12;99039.75;;;-2.72;89.13
6668;BME280;3370;47.712;9.082;2023-02-11T00:41:38;99040.19;;;-2.82;89.68
6668;BME280;3370;47.712;9.082;2023-02-11T00:44:04;99037.53;;;-2.85;89.98
6668;BME280;3370;47.712;9.082;2023-02-11T00:46:29;99039.28;;;-2.84;90.21
6668;BME280;3370;47.712;9.082;2023-02-11T00:48:55;99032.28;;;-2.92;90.36
6668;BME280;3370;47.712;9.082;2023-02-11T00:51:26;99027.34;;;-2.67;89.68
6668;BME280;3370;47.712;9.082;2023-02-11T00:53:53;99018.41;;;-2.59;88.63
6668;BME280;3370;47.712;9.082;2023-02-11T00:56:19;99021.66;;;-2.41;87.68
6668;BME280;3370;47.712;9.082;2023-02-11T00:58:45;99018.31;;;-2.40;86.90
6668;BME280;3370;47.712;9.082;2023-02-11T01:01:12;99021.44;;;-2.68;88.14
6668;BME280;3370;47.712;9.082;2023-02-11T01:03:38;99020.16;;;-2.79;89.65
6668;BME280;3370;47.712;9.082;2023-02-11T01:06:07;99018.78;;;-2.94;90.58
6668;BME280;3370;47.712;9.082;2023-02-11T01:08:33;99013.34;;;-3.03;91.37
6668;BME280;3370;47.712;9.082;2023-02-11T01:11:04;99016.00;;;-3.00;91.71
6668;BME280;3370;47.712;9.082;2023-02-11T01:13:33;99007.44;;;-3.03;91.91
6668;BME280;3370;47.712;9.082;2023-02-11T01:16:00;99003.88;;;-3.09;92.41
6668;BME280;3370;47.712;9.082;2023-02-11T01:18:26;99007.28;;;-3.08;92.59
6668;BME280;3370;47.712;9.082;2023-02-11T01:20:52;99004.25;;;-2.99;92.39
6668;BME280;3370;47.712;9.082;2023-02-11T01:23:19;99007.34;;;-2.85;91.13
6668;BME280;3370;47.712;9.082;2023-02-11T01:25:46;98999.53;;;-2.92;91.37
6668;BME280;3370;47.712;9.082;2023-02-11T01:28:25;98995.69;;;-3.04;91.46
6668;BME280;3370;47.712;9.082;2023-02-11T01:30:52;98994.69;;;-2.87;91.02
6668;BME280;3370;47.712;9.082;2023-02-11T01:33:18;98999.28;;;-2.98;91.13
6668;BME280;3370;47.712;9.082;2023-02-11T01:35:45;99000.19;;;-2.96;90.13
6668;BME280;3370;47.712;9.082;2023-02-11T01:38:17;98992.72;;;-3.15;90.19
6668;BME280;3370;47.712;9.082;2023-02-11T01:40:50;98988.16;;;-3.03;90.32
6668;BME280;3370;47.712;9.082;2023-02-11T01:43:20;98989.41;;;-3.14;90.38
6668;BME280;3370;47.712;9.082;2023-02-11T01:48:35;98985.47;;;-3.29;92.01
6668;BME280;3370;47.712;9.082;2023-02-11T01:51:17;98994.31;;;-3.17;91.87
6668;BME280;3370;47.712;9.082;2023-02-11T01:53:46;98998.00;;;-3.09;91.51
6668;BME280;3370;47.712;9.082;2023-02-11T01:56:33;98998.31;;;-3.01;90.77
6668;BME280;3370;47.712;9.082;2023-02-11T01:59:28;98996.91;;;-2.95;90.08
6668;BME280;3370;47.712;9.082;2023-02-11T02:01:59;98990.44;;;-3.09;90.20
6668;BME280;3370;47.712;9.082;2023-02-11T02:04:33;98988.72;;;-3.10;90.03
6668;BME280;3370;47.712;9.082;2023-02-11T02:07:24;98990.16;;;-3.17;90.33
6668;BME280;3370;47.712;9.082;2023-02-11T02:10:02;98986.81;;;-3.16;90.33
6668;BME280;3370;47.712;9.082;2023-02-11T02:12:30;98987.69;;;-3.15;90.34
6668;BME280;3370;47.712;9.082;2023-02-11T02:18:15;98978.28;;;-3.19;90.63
6668;BME280;3370;47.712;9.082;2023-02-11T02:21:59;98986.66;;;-3.20;88.68
6668;BME280;3370;47.712;9.082;2023-02-11T02:27:40;98982.16;;;-3.28;89.91
6668;BME280;3370;47.712;9.082;2023-02-11T02:30:32;98990.72;;;-3.43;91.36
6668;BME280;3370;47.712;9.082;2023-02-11T02:38:59;98980.34;;;-3.51;92.25
6668;BME280;3370;47.712;9.082;2023-02-11T02:41:33;98972.34;;;-3.42;92.63
6668;BME280;3370;47.712;9.082;2023-02-11T02:44:00;98969.69;;;-3.45;90.86
6668;BME280;3370;47.712;9.082;2023-02-11T02:46:32;98968.25;;;-3.60;91.20
6668;BME280;3370;47.712;9.082;2023-02-11T02:49:00;98964.06;;;-3.59;91.29
6668;BME280;3370;47.712;9.082;2023-02-11T02:52:04;98959.78;;;-3.62;91.10
6668;BME280;3370;47.712;9.082;2023-02-11T02:58:04;98951.09;;;-3.49;90.61
6668;BME280;3370;47.712;9.082;2023-02-11T03:03:47;98955.22;;;-3.51;90.83
6668;BME280;3370;47.712;9.082;2023-02-11T03:06:37;98953.84;;;-3.43;91.11
6668;BME280;3370;47.712;9.082;2023-02-11T03:09:27;98952.47;;;-3.36;90.92
6668;BME280;3370;47.712;9.082;2023-02-11T03:11:55;98951.34;;;-3.43;91.18
6668;BME280;3370;47.712;9.082;2023-02-11T03:14:22;98957.81;;;-3.48;91.72
6668;BME280;3370;47.712;9.082;2023-02-11T03:16:53;98952.03;;;-3.67;92.47
6668;BME280;3370;47.712;9.082;2023-02-11T03:19:31;98937.09;;;-3.63;93.60
6668;BME280;3370;47.712;9.082;2023-02-11T03:21:57;98942.13;;;-3.63;93.41
6668;BME280;3370;47.712;9.082;2023-02-11T03:24:34;98935.25;;;-3.68;93.68
6668;BME280;3370;47.712;9.082;2023-02-11T03:30:31;98944.47;;;-3.47;92.98
6668;BME280;3370;47.712;9.082;2023-02-11T03:33:22;98927.78;;;-3.45;92.31
6668;BME280;3370;47.712;9.082;2023-02-11T03:35:57;98923.28;;;-3.52;92.85
6668;BME280;3370;47.712;9.082;2023-02-11T03:38:44;98923.38;;;-3.51;93.20
6668;BME280;3370;47.712;9.082;2023-02-11T03:41:13;98919.88;;;-3.54;93.38
6668;BME280;3370;47.712;9.082;2023-02-11T03:43:45;98915.91;;;-3.69;93.11
6668;BME280;3370;47.712;9.082;2023-02-11T03:46:15;98915.69;;;-3.75;94.17
6668;BME280;3370;47.712;9.082;2023-02-11T03:48:52;98921.69;;;-3.71;94.31
6668;BME280;3370;47.712;9.082;2023-02-11T03:51:21;98917.66;;;-3.68;94.04
6668;BME280;3370;47.712;9.082;2023-02-11T03:53:49;98915.44;;;-3.60;94.43
6668;BME280;3370;47.712;9.082;2023-02-11T03:56:21;98910.28;;;-3.63;94.19
6668;BME280;3370;47.712;9.082;2023-02-11T03:58:49;98906.06;;;-3.64;94.37
6668;BME280;3370;47.712;9.082;2023-02-11T04:01:15;98913.16;;;-3.75;94.85
6668;BME280;3370;47.712;9.082;2023-02-11T04:03:41;98911.56;;;-3.73;95.12
6668;BME280;3370;47.712;9.082;2023-02-11T04:06:07;98915.84;;;-3.70;95.14
6668;BME280;3370;47.712;9.082;2023-02-11T04:08:33;98911.44;;;-3.76;95.27
6668;BME280;3370;47.712;9.082;2023-02-11T04:10:59;98916.84;;;-3.67;95.03
6668;BME280;3370;47.712;9.082;2023-02-11T04:13:25;98918.38;;;-3.70;95.08
6668;BME280;3370;47.712;9.082;2023-02-11T04:15:50;98913.94;;;-3.76;95.92
6668;BME280;3370;47.712;9.082;2023-02-11T04:18:16;98926.19;;;-3.64;96.10
6668;BME280;3370;47.712;9.082;2023-02-11T04:20:42;98922.38;;;-3.54;94.72
6668;BME280;3370;47.712;9.082;2023-02-11T04:23:08;98926.78;;;-3.49;93.94
6668;BME280;3370;47.712;9.082;2023-02-11T04:25:35;98918.63;;;-3.43;93.65
6668;BME280;3370;47.712;9.082;2023-02-11T04:28:01;98924.84;;;-3.35;93.48
6668;BME280;3370;47.712;9.082;2023-02-11T04:30:27;98925.19;;;-3.47;93.07
6668;BME280;3370;47.712;9.082;2023-02-11T04:32:53;98923.19;;;-3.55;93.85
6668;BME280;3370;47.712;9.082;2023-02-11T04:35:19;98921.69;;;-3.71;94.31
6668;BME280;3370;47.712;9.082;2023-02-11T04:37:45;98923.88;;;-3.79;95.21
6668;BME280;3370;47.712;9.082;2023-02-11T04:40:11;98925.00;;;-3.72;95.21
6668;BME280;3370;47.712;9.082;2023-02-11T04:42:37;98929.34;;;-3.68;95.16
6668;BME280;3370;47.712;9.082;2023-02-11T04:45:04;98931.41;;;-3.79;94.57
6668;BME280;3370;47.712;9.082;2023-02-11T04:47:29;98927.88;;;-3.84;93.81
6668;BME280;3370;47.712;9.082;2023-02-11T04:49:55;98933.88;;;-3.80;94.02
6668;BME280;3370;47.712;9.082;2023-02-11T04:52:21;98947.69;;;-3.90;94.95
6668;BME280;3370;47.712;9.082;2023-02-11T04:54:47;98944.06;;;-3.77;94.74
6668;BME280;3370;47.712;9.082;2023-02-11T04:57:13;98941.47;;;-3.79;94.17
6668;BME280;3370;47.712;9.082;2023-02-11T04:59:39;98941.34;;;-3.82;94.16
6668;BME280;3370;47.712;9.082;2023-02-11T05:02:05;98950.75;;;-3.97;94.45
6668;BME280;3370;47.712;9.082;2023-02-11T05:04:31;98943.88;;;-4.01;95.07
6668;BME280;3370;47.712;9.082;2023-02-11T05:06:56;98949.03;;;-3.98;95.24
6668;BME280;3370;47.712;9.082;2023-02-11T05:09:22;98952.09;;;-4.06;94.76
6668;BME280;3370;47.712;9.082;2023-02-11T05:11:48;98960.00;;;-3.96;94.34
6668;BME280;3370;47.712;9.082;2023-02-11T05:14:14;98954.25;;;-3.94;94.07
6668;BME280;3370;47.712;9.082;2023-02-11T05:16:40;98961.31;;;-3.85;94.15
6668;BME280;3370;47.712;9.082;2023-02-11T05:19:06;98967.28;;;-3.83;93.75
6668;BME280;3370;47.712;9.082;2023-02-11T05:21:32;98972.72;;;-3.93;94.19
6668;BME280;3370;47.712;9.082;2023-02-11T05:23:59;98979.66;;;-3.88;94.29
6668;BME280;3370;47.712;9.082;2023-02-11T05:26:25;98981.25;;;-3.90;94.36
6668;BME280;3370;47.712;9.082;2023-02-11T05:28:51;98978.31;;;-3.79;93.76
6668;BME280;3370;47.712;9.082;2023-02-11T05:31:16;98976.41;;;-3.85;93.75
6668;BME280;3370;47.712;9.082;2023-02-11T05:33:43;98988.19;;;-3.84;93.81
6668;BME280;3370;47.712;9.082;2023-02-11T05:36:11;98990.03;;;-3.80;93.95
6668;BME280;3370;47.712;9.082;2023-02-11T05:38:38;98985.16;;;-3.77;93.22
6668;BME280;3370;47.712;9.082;2023-02-11T05:41:05;98983.28;;;-3.61;92.31
6668;BME280;3370;47.712;9.082;2023-02-11T05:43:32;98971.78;;;-3.76;92.49
6668;BME280;3370;47.712;9.082;2023-02-11T05:46:00;98975.69;;;-3.82;92.88
6668;BME280;3370;47.712;9.082;2023-02-11T05:48:25;98987.06;;;-3.91;93.40
6668;BME280;3370;47.712;9.082;2023-02-11T05:50:51;98998.38;;;-4.00;94.02
6668;BME280;3370;47.712;9.082;2023-02-11T05:53:17;98994.22;;;-4.00;94.11
6668;BME280;3370;47.712;9.082;2023-02-11T05:55:43;99001.75;;;-4.00;94.44
6668;BME280;3370;47.712;9.082;2023-02-11T05:58:08;99002.34;;;-4.06;94.78
6668;BME280;3370;47.712;9.082;2023-02-11T06:00:35;98988.78;;;-3.90;94.70
6668;BME280;3370;47.712;9.082;2023-02-11T06:03:01;98990.34;;;-3.92;94.65
6668;BME280;3370;47.712;9.082;2023-02-11T06:05:29;98986.00;;;-3.96;94.71
6668;BME280;3370;47.712;9.082;2023-02-11T06:07:55;98978.31;;;-3.79;94.16
6668;BME280;3370;47.712;9.082;2023-02-11T06:10:21;98972.84;;;-3.71;93.28
6668;BME280;3370;47.712;9.082;2023-02-11T06:12:46;98975.09;;;-3.77;93.25
6668;BME280;3370;47.712;9.082;2023-02-11T06:15:12;98971.44;;;-3.83;93.12
6668;BME280;3370;47.712;9.082;2023-02-11T06:17:38;98965.13;;;-3.95;93.44
6668;BME280;3370;47.712;9.082;2023-02-11T06:20:06;98962.84;;;-4.08;93.98
6668;BME280;3370;47.712;9.082;2023-02-11T06:22:33;98960.34;;;-4.08;94.41
6668;BME280;3370;47.712;9.082;2023-02-11T06:24:59;98953.00;;;-4.03;94.70
6668;BME280;3370;47.712;9.082;2023-02-11T06:27:25;98952.09;;;-4.06;95.00
6668;BME280;3370;47.712;9.082;2023-02-11T06:29:50;98947.06;;;-4.06;95.30
6668;BME280;3370;47.712;9.082;2023-02-11T06:32:19;98952.09;;;-4.06;95.70
6668;BME280;3370;47.712;9.082;2023-02-11T06:34:45;98955.78;;;-3.97;95.56
6668;BME280;3370;47.712;9.082;2023-02-11T06:37:11;98951.03;;;-3.91;95.37
6668;BME280;3370;47.712;9.082;2023-02-11T06:39:38;98948.44;;;-3.93;95.68
6668;BME280;3370;47.712;9.082;2023-02-11T06:42:04;98947.84;;;-3.87;95.63
6668;BME280;3370;47.712;9.082;2023-02-11T06:44:29;98937.94;;;-3.84;95.59
6668;BME280;3370;47.712;9.082;2023-02-11T06:46:56;98929.84;;;-3.77;95.51
6668;BME280;3370;47.712;9.082;2023-02-11T06:49:22;98929.56;;;-3.83;95.93
6668;BME280;3370;47.712;9.082;2023-02-11T06:51:48;98923.88;;;-3.79;96.08
6668;BME280;3370;47.712;9.082;2023-02-11T06:54:14;98921.63;;;-3.73;95.81
6668;BME280;3370;47.712;9.082;2023-02-11T06:56:40;98919.91;;;-3.74;95.75
6668;BME280;3370;47.712;9.082;2023-02-11T06:59:07;98900.13;;;-3.66;95.75
6668;BME280;3370;47.712;9.082;2023-02-11T07:01:33;98899.72;;;-3.75;95.27
6668;BME280;3370;47.712;9.082;2023-02-11T07:03:58;98893.31;;;-3.88;95.66
6668;BME280;3370;47.712;9.082;2023-02-11T07:06:26;98888.13;;;-3.93;96.22
6668;BME280;3370;47.712;9.082;2023-02-11T07:08:54;98904.81;;;-3.95;96.55
6668;BME280;3370;47.712;9.082;2023-02-11T07:11:24;98898.78;;;-3.98;96.94
6668;BME280;3370;47.712;9.082;2023-02-11T07:13:54;98906.50;;;-3.94;97.26
6668;BME280;3370;47.712;9.082;2023-02-11T07:16:21;98906.25;;;-3.80;96.92
6668;BME280;3370;47.712;9.082;2023-02-11T07:18:48;98919.78;;;-3.77;96.71
6668;BME280;3370;47.712;9.082;2023-02-11T07:21:18;98925.13;;;-3.69;96.71
6668;BME280;3370;47.712;9.082;2023-02-11T07:23:44;98924.44;;;-3.65;96.68
6668;BME280;3370;47.712;9.082;2023-02-11T07:26:14;98923.91;;;-3.58;96.46
6668;BME280;3370;47.712;9.082;2023-02-11T07:28:42;98929.22;;;-3.52;96.70
6668;BME280;3370;47.712;9.082;2023-02-11T07:31:23;98928.06;;;-3.39;96.68
6668;BME280;3370;47.712;9.082;2023-02-11T07:33:52;98930.06;;;-3.30;96.49
6668;BME280;3370;47.712;9.082;2023-02-11T07:36:19;98921.94;;;-3.23;96.44
6668;BME280;3370;47.712;9.082;2023-02-11T07:38:45;98917.69;;;-3.03;96.09
6668;BME280;3370;47.712;9.082;2023-02-11T07:41:15;98917.94;;;-2.97;95.83
6668;BME280;3370;47.712;9.082;2023-02-11T07:43:42;98912.16;;;-2.94;96.23
6668;BME280;3370;47.712;9.082;2023-02-11T07:46:13;98893.13;;;-2.87;96.34
6668;BME280;3370;47.712;9.082;2023-02-11T07:48:40;98880.59;;;-2.86;96.57
6668;BME280;3370;47.712;9.082;2023-02-11T07:51:22;98896.44;;;-2.89;97.31
6668;BME280;3370;47.712;9.082;2023-02-11T07:53:48;98919.22;;;-2.85;97.62
6668;BME280;3370;47.712;9.082;2023-02-11T07:56:15;98946.41;;;-2.77;97.52
6668;BME280;3370;47.712;9.082;2023-02-11T07:58:42;98971.19;;;-2.65;97.58
6668;BME280;3370;47.712;9.082;2023-02-11T08:01:11;98966.69;;;-2.51;97.27
6668;BME280;3370;47.712;9.082;2023-02-11T08:03:38;98966.88;;;-2.46;97.59
6668;BME280;3370;47.712;9.082;2023-02-11T08:06:16;98977.03;;;-2.43;97.65
6668;BME280;3370;47.712;9.082;2023-02-11T08:08:42;98977.50;;;-2.31;97.92
6668;BME280;3370;47.712;9.082;2023-02-11T08:11:12;98980.34;;;-2.22;97.60
6668;BME280;3370;47.712;9.082;2023-02-11T08:13:38;98990.75;;;-2.13;97.61
6668;BME280;3370;47.712;9.082;2023-02-11T08:16:05;98985.13;;;-2.05;97.48
6668;BME280;3370;47.712;9.082;2023-02-11T08:18:32;98976.22;;;-1.97;97.17
6668;BME280;3370;47.712;9.082;2023-02-11T08:21:06;98991.59;;;-1.89;97.16
6668;BME280;3370;47.712;9.082;2023-02-11T08:23:36;98996.19;;;-1.79;97.28
6668;BME280;3370;47.712;9.082;2023-02-11T08:26:09;98998.97;;;-1.71;97.66
6668;BME280;3370;47.712;9.082;2023-02-11T08:28:37;98997.78;;;-1.57;97.72
6668;BME280;3370;47.712;9.082;2023-02-11T08:31:11;98999.69;;;-1.50;98.51
6668;BME280;3370;47.712;9.082;2023-02-11T08:33:38;98990.06;;;-1.36;98.53
6668;BME280;3370;47.712;9.082;2023-02-11T08:36:17;98985.59;;;-1.19;98.26
6668;BME280;3370;47.712;9.082;2023-02-11T08:38:44;98983.97;;;-1.17;97.51
6668;BME280;3370;47.712;9.082;2023-02-11T08:41:11;98979.03;;;-1.14;97.83
6668;BME280;3370;47.712;9.082;2023-02-11T08:43:40;98983.06;;;-1.19;99.30
6668;BME280;3370;47.712;9.082;2023-02-11T08:46:08;98983.47;;;-1.05;98.89
6668;BME280;3370;47.712;9.082;2023-02-11T08:48:34;98972.66;;;-1.03;97.98
6668;BME280;3370;47.712;9.082;2023-02-11T08:51:29;98977.19;;;-0.92;97.58
6668;BME280;3370;47.712;9.082;2023-02-11T08:53:58;98974.25;;;-1.05;94.86
6668;BME280;3370;47.712;9.082;2023-02-11T08:56:25;98975.06;;;-1.06;93.76
6668;BME280;3370;47.712;9.082;2023-02-11T08:58:51;98966.53;;;-1.09;91.66
6668;BME280;3370;47.712;9.082;2023-02-11T09:01:27;98966.41;;;-1.14;93.12
6668;BME280;3370;47.712;9.082;2023-02-11T09:03:54;98971.63;;;-1.08;93.62
6668;BME280;3370;47.712;9.082;2023-02-11T09:06:21;98976.78;;;-1.05;95.39
6668;BME280;3370;47.712;9.082;2023-02-11T09:08:50;98971.63;;;-1.08;96.50
6668;BME280;3370;47.712;9.082;2023-02-11T09:11:20;98969.72;;;-1.15;95.62
6668;BME280;3370;47.712;9.082;2023-02-11T09:13:47;98960.94;;;-1.26;96.25
6668;BME280;3370;47.712;9.082;2023-02-11T09:16:22;98936.69;;;-0.95;94.52
6668;BME280;3370;47.712;9.082;2023-02-11T09:18:49;98923.91;;;-1.00;94.34
6668;BME280;3370;47.712;9.082;2023-02-11T09:21:16;98930.44;;;-1.07;94.88
6668;BME280;3370;47.712;9.082;2023-02-11T09:23:43;98949.56;;;-1.13;93.88
6668;BME280;3370;47.712;9.082;2023-02-11T09:26:23;98949.91;;;-1.03;94.58
6668;BME280;3370;47.712;9.082;2023-02-11T09:28:50;98947.91;;;-0.86;94.35
6668;BME280;3370;47.712;9.082;2023-02-11T09:31:20;98942.19;;;-0.80;92.52
6668;BME280;3370;47.712;9.082;2023-02-11T09:33:49;98941.81;;;-0.64;90.86
6668;BME280;3370;47.712;9.082;2023-02-11T09:36:22;98941.19;;;-0.56;90.93
6668;BME280;3370;47.712;9.082;2023-02-11T09:38:49;98934.84;;;-0.72;90.47
6668;BME280;3370;47.712;9.082;2023-02-11T09:41:32;98939.19;;;-0.68;90.46
6668;BME280;3370;47.712;9.082;2023-02-11T09:44:03;98932.19;;;-0.77;90.50
6668;BME280;3370;47.712;9.082;2023-02-11T09:46:35;98943.00;;;-0.81;91.63
6668;BME280;3370;47.712;9.082;2023-02-11T09:49:03;98945.72;;;-0.75;90.48
6668;BME280;3370;47.712;9.082;2023-02-11T09:51:48;98945.59;;;-0.78;91.20
6668;BME280;3370;47.712;9.082;2023-02-11T09:54:36;98948.00;;;-0.83;90.38
6668;BME280;3370;47.712;9.082;2023-02-11T09:57:04;98956.72;;;-0.73;90.37
6668;BME280;3370;47.712;9.082;2023-02-11T09:59:30;98954.25;;;-0.43;88.39
6668;BME280;3370;47.712;9.082;2023-02-11T10:02:29;98961.88;;;-0.41;87.96
6668;BME280;3370;47.712;9.082;2023-02-11T10:05:21;98958.50;;;-0.42;87.67
6668;BME280;3370;47.712;9.082;2023-02-11T10:08:42;98972.16;;;-0.35;87.84
6668;BME280;3370;47.712;9.082;2023-02-11T10:11:30;98956.06;;;-0.08;87.08
6668;BME280;3370;47.712;9.082;2023-02-11T10:17:09;98960.97;;;0.17;85.63
6668;BME280;3370;47.712;9.082;2023-02-11T10:19:49;98958.94;;;0.36;84.41
6668;BME280;3370;47.712;9.082;2023-02-11T10:22:54;98964.47;;;0.53;83.40
6668;BME280;3370;47.712;9.082;2023-02-11T10:27:57;98953.41;;;0.49;81.92
6668;BME280;3370;47.712;9.082;2023-02-11T10:30:34;98952.41;;;0.44;81.41
6668;BME280;3370;47.712;9.082;2023-02-11T10:33:11;98947.19;;;0.38;80.43
6668;BME280;3370;47.712;9.082;2023-02-11T10:35:40;98954.66;;;0.67;82.27
6668;BME280;3370;47.712;9.082;2023-02-11T10:38:10;98943.41;;;0.90;79.75
6668;BME280;3370;47.712;9.082;2023-02-11T10:40:36;98943.41;;;0.90;78.18
6668;BME280;3370;47.712;9.082;2023-02-11T10:43:13;98935.09;;;0.94;76.50
6668;BME280;3370;47.712;9.082;2023-02-11T10:48:45;98929.19;;;1.33;77.90
6668;BME280;3370;47.712;9.082;2023-02-11T10:51:21;98923.13;;;1.27;76.55
6668;BME280;3370;47.712;9.082;2023-02-11T10:56:26;98933.50;;;1.36;76.72
6668;BME280;3370;47.712;9.082;2023-02-11T10:59:16;98926.78;;;1.38;74.82
6668;BME280;3370;47.712;9.082;2023-02-11T11:09:53;98913.28;;;2.26;74.23
6668;BME280;3370;47.712;9.082;2023-02-11T11:12:45;98912.94;;;2.55;74.43
6668;BME280;3370;47.712;9.082;2023-02-11T11:15:22;98913.63;;;2.46;73.97
6668;BME280;3370;47.712;9.082;2023-02-11T11:18:15;98910.75;;;2.26;73.39
6668;BME280;3370;47.712;9.082;2023-02-11T11:21:05;98905.50;;;2.65;72.70
6668;BME280;3370;47.712;9.082;2023-02-11T11:23:34;98901.75;;;2.43;71.26
6668;BME280;3370;47.712;9.082;2023-02-11T11:26:12;98891.75;;;3.09;70.98
6668;BME280;3370;47.712;9.082;2023-02-11T11:31:17;98879.94;;;4.64;63.19
6668;BME280;3370;47.712;9.082;2023-02-11T11:33:45;98867.00;;;5.91;58.18
6668;BME280;3370;47.712;9.082;2023-02-11T11:36:19;98868.81;;;6.79;53.52
6668;BME280;3370;47.712;9.082;2023-02-11T11:38:56;98859.94;;;7.94;48.88
6668;BME280;3370;47.712;9.082;2023-02-11T11:41:26;98845.13;;;10.00;45.93
6668;BME280;3370;47.712;9.082;2023-02-11T11:43:58;98845.88;;;10.10;45.29
6668;BME280;3370;47.712;9.082;2023-02-11T11:46:33;98847.38;;;10.25;45.88
6668;BME280;3370;47.712;9.082;2023-02-11T11:49:28;98847.09;;;10.94;43.19
6668;BME280;3370;47.712;9.082;2023-02-11T11:55:15;98852.22;;;12.96;39.55
6668;BME280;3370;47.712;9.082;2023-02-11T11:57:43;98861.28;;;14.05;37.87
6668;BME280;3370;47.712;9.082;2023-02-11T12:00:19;98845.34;;;14.99;34.56
6668;BME280;3370;47.712;9.082;2023-02-11T12:12:50;98827.94;;;13.03;38.73
6668;BME280;3370;47.712;9.082;2023-02-11T12:15:40;98828.94;;;12.97;36.49
6668;BME280;3370;47.712;9.082;2023-02-11T12:27:15;98826.72;;;13.49;36.23
6668;BME280;3370;47.712;9.082;2023-02-11T12:29:51;98824.00;;;14.38;33.44
6668;BME280;3370;47.712;9.082;2023-02-11T12:41:18;98813.66;;;16.10;31.43
6668;BME280;3370;47.712;9.082;2023-02-11T12:44:41;98810.69;;;16.19;29.71
6668;BME280;3370;47.712;9.082;2023-02-11T12:55:38;98808.63;;;17.70;27.24
6668;BME280;3370;47.712;9.082;2023-02-11T12:58:17;98805.75;;;17.76;27.22
6668;BME280;3370;47.712;9.082;2023-02-11T13:00:58;98795.94;;;17.24;28.18
6668;BME280;3370;47.712;9.082;2023-02-11T13:03:57;98798.25;;;15.83;29.02
6668;BME280;3370;47.712;9.082;2023-02-11T13:06:38;98786.75;;;16.55;29.05
6668;BME280;3370;47.712;9.082;2023-02-11T13:09:16;98784.50;;;16.89;28.86
6668;BME280;3370;47.712;9.082;2023-02-11T13:11:48;98786.38;;;18.37;26.66
6668;BME280;3370;47.712;9.082;2023-02-11T13:14:32;98772.91;;;18.99;25.08
6668;BME280;3370;47.712;9.082;2023-02-11T13:17:07;98786.41;;;15.52;29.30
6668;BME280;3370;47.712;9.082;2023-02-11T13:19:45;98794.00;;;13.48;33.17
6668;BME280;3370;47.712;9.082;2023-02-11T13:25:24;98788.03;;;12.13;36.72
6668;BME280;3370;47.712;9.082;2023-02-11T13:28:31;98767.94;;;11.88;37.87
6668;BME280;3370;47.712;9.082;2023-02-11T13:31:01;98768.53;;;11.20;38.55
6668;BME280;3370;47.712;9.082;2023-02-11T13:33:34;98767.31;;;10.48;40.91
6668;BME280;3370;47.712;9.082;2023-02-11T13:38:31;98755.81;;;10.67;41.65
6668;BME280;3370;47.712;9.082;2023-02-11T13:41:15;98751.97;;;11.34;40.74
6668;BME280;3370;47.712;9.082;2023-02-11T13:43:42;98743.13;;;12.22;39.23
6668;BME280;3370;47.712;9.082;2023-02-11T13:46:13;98739.22;;;12.05;38.83
6668;BME280;3370;47.712;9.082;2023-02-11T13:48:49;98743.22;;;11.80;39.48
6668;BME280;3370;47.712;9.082;2023-02-11T13:51:40;98737.97;;;12.22;38.57
6668;BME280;3370;47.712;9.082;2023-02-11T13:54:05;98738.72;;;13.22;37.29
6668;BME280;3370;47.712;9.082;2023-02-11T13:56:39;98729.81;;;13.03;36.97
6668;BME280;3370;47.712;9.082;2023-02-11T14:05:26;98746.59;;;11.82;39.64
6668;BME280;3370;47.712;9.082;2023-02-11T14:08:14;98746.34;;;11.55;38.44
6668;BME280;3370;47.712;9.082;2023-02-11T14:16:19;98731.38;;;11.32;39.37
6668;BME280;3370;47.712;9.082;2023-02-11T14:26:33;98726.34;;;13.04;34.50
6668;BME280;3370;47.712;9.082;2023-02-11T14:29:46;98726.03;;;12.51;36.07
6668;BME280;3370;47.712;9.082;2023-02-11T14:41:48;98712.31;;;11.78;37.41
6668;BME280;3370;47.712;9.082;2023-02-11T14:44:27;98712.66;;;11.64;38.08
6668;BME280;3370;47.712;9.082;2023-02-11T14:46:54;98711.63;;;11.32;38.44
6668;BME280;3370;47.712;9.082;2023-02-11T14:49:35;98722.38;;;11.11;38.64
6668;BME280;3370;47.712;9.082;2023-02-11T14:52:29;98722.00;;;10.41;39.95
6668;BME280;3370;47.712;9.082;2023-02-11T14:57:42;98719.69;;;10.24;40.76
6668;BME280;3370;47.712;9.082;2023-02-11T15:00:21;98725.94;;;10.07;40.81
6668;BME280;3370;47.712;9.082;2023-02-11T15:02:47;98719.97;;;9.49;42.63
6668;BME280;3370;47.712;9.082;2023-02-11T15:05:19;98725.91;;;8.86;45.45
6668;BME280;3370;47.712;9.082;2023-02-11T15:07:49;98730.38;;;8.67;46.29
6668;BME280;3370;47.712;9.082;2023-02-11T15:10:42;98734.19;;;8.23;49.89
6668;BME280;3370;47.712;9.082;2023-02-11T15:13:18;98727.53;;;8.03;48.83
6668;BME280;3370;47.712;9.082;2023-02-11T15:15:45;98725.91;;;7.90;48.22
6668;BME280;3370;47.712;9.082;2023-02-11T15:18:20;98732.75;;;7.86;48.07
6668;BME280;3370;47.712;9.082;2023-02-11T15:20:48;98731.09;;;7.82;48.51
6668;BME280;3370;47.712;9.082;2023-02-11T15:23:24;98736.22;;;7.81;52.10
6668;BME280;3370;47.712;9.082;2023-02-11T15:25:51;98733.63;;;7.87;51.84
6668;BME280;3370;47.712;9.082;2023-02-11T15:28:30;98731.91;;;7.87;51.22
6668;BME280;3370;47.712;9.082;2023-02-11T15:31:15;98742.22;;;7.81;49.49
6668;BME280;3370;47.712;9.082;2023-02-11T15:33:41;98737.94;;;7.82;47.89
6668;BME280;3370;47.712;9.082;2023-02-11T15:36:12;98732.06;;;7.66;50.32
6668;BME280;3370;47.712;9.082;2023-02-11T15:38:38;98730.47;;;7.46;50.99
6668;BME280;3370;47.712;9.082;2023-02-11T15:41:06;98739.00;;;7.45;52.18
6668;BME280;3370;47.712;9.082;2023-02-11T15:43:46;98739.91;;;7.34;52.70
6668;BME280;3370;47.712;9.082;2023-02-11T15:46:21;98742.56;;;7.10;52.65
6668;BME280;3370;47.712;9.082;2023-02-11T15:48:52;98739.25;;;6.93;55.83
6668;BME280;3370;47.712;9.082;2023-02-11T15:51:27;98748.72;;;6.49;54.57